x

South Hatteras - 225 South Of Cape Hatteras (41002) Wave Buoy

1:50 - Thu 30th Mar 2017 All times are EDT. -4 hours from GMT.

  • Sig Wave height 5.6ft
  • Swell Direction
  • Peak Period 9s
  • Average Period 6s
  • Wind
    16mph, 20mph gusts
  • Sea Temp 72°f
  • Luft Temp 67°f
  • Sea Pressure 1019.7mb
  • South Hatteras - 225 South Of Cape Hatteras
  • South Hatteras - 225 South Of Cape Hatteras

More Historic Weather Station data

Upgrade to MSW Pro to gain access to the past 30 days of data for over 8000 Wavebouys and Weather Stations around the globe.

Join Pro

Comparision Forecast

View Surf forecast
   
Do 03/30 1:50 5.5ft 9s 6s 16 20 mph 1019.7mb 72f 67f
12:50 6ft 10s 7s 13 18 mph 1019.9mb 72f 68f
11:50 6ft 10s 7s 13 18 mph 1019.8mb 72f 68f
10:50 6ft 10s 7s 11 16 mph 1019.8mb 72f 68f
9:50 6ft 10s 7s 11 13 mph 1019.4mb 72f 68f
8:50 6ft 8s 6s 11 13 mph 1018.7mb 72f 68f
7:50 6.5ft 9s 6s 11 16 mph 1018.2mb 72f 68f
6:50 6.5ft 8s 6s 11 16 mph 1017.7mb 72f 68f
5:50 6.5ft 10s 6s 11 13 mph 1017.3mb 72f 68f
4:50 6ft 9s 6s 13 16 mph 1017.3mb 72f 68f
3:50 5.5ft 9s 6s 16 20 mph 1017.4mb 72f 68f
2:50 6ft 9s 6s 16 20 mph 1017.8mb 72f 69f
1:50 5.5ft 10s 6s 16 20 mph 1018.4mb 72f 69f
12:50 6ft 10s 6s 16 18 mph 1018.3mb 72f 69f
Mi 03/29 11:50 6ft 10s 6s 16 20 mph 1018.1mb 72f 69f
10:50 6ft 10s 6s 18 20 mph 1018.1mb 72f 70f
9:50 6ft 10s 6s 20 22 mph 1017.4mb 72f 70f
8:50 5ft 10s 6s 20 22 mph 1016.6mb 72f 70f
7:50 5.5ft 11s 7s 18 20 mph 1016.1mb 72f 71f
6:50 6ft 10s 7s 13 16 mph 1015.5mb 73f 72f
5:50 6ft 10s 7s 13 16 mph 1015.2mb 73f 73f
4:50 6ft 10s 7s 13 18 mph 1014.8mb 73f 73f
3:50 6ft 10s 7s 7 9 mph 1014.7mb 73f 73f
2:50 7ft 10s 7s 7 9 mph 1014.7mb 73f 73f
1:50 7ft 9s 7s 11 13 mph 1015mb 73f 73f
12:50 6.5ft 10s 7s 11 13 mph 1014.7mb 73f 72f
11:50 6ft 11s 6s 11 13 mph 1014.9mb 72f 72f
10:50 6.5ft 11s 6s 11 13 mph 1014.9mb 72f 71f
9:50 6ft 10s 6s 7 9 mph 1014.8mb 72f 70f
8:50 6ft 10s 6s 13 16 mph 1015mb 72f 68f
7:50 6ft 10s 6s 18 20 mph 1014mb 72f 71f
6:50 6ft 10s 6s 20 25 mph 1013.6mb 72f 71f
5:50 6ft 10s 6s 20 25 mph 1013.2mb 72f 71f
4:50 5ft 10s 6s 16 18 mph 1013.8mb 72f 71f
3:50 5.5ft 10s 6s 16 20 mph 1014mb 72f 71f
2:50 5ft 10s 6s 16 20 mph 1014.1mb 72f 71f
1:50 5ft 10s 6s 16 20 mph 1014.9mb 72f 71f
12:50 5.5ft 10s 7s 18 20 mph 1015mb 72f 71f
Di 03/28 11:50 5.5ft 10s 7s 16 18 mph 1015.5mb 72f 71f
10:50 5.5ft 10s 7s 13 16 mph 1015.8mb 73f 70f
9:50 6ft 10s 8s 11 13 mph 1016.2mb 73f 70f
8:50 5ft 10s 8s 9 11 mph 1016.1mb 73f 70f
7:50 6ft 9s 8s 11 13 mph 1015.7mb 73f 70f
6:50 6ft 10s 8s 9 11 mph 1015.4mb 74f 70f
5:50 5ft 10s 8s 7 9 mph 1015.7mb 74f 70f
4:50 6ft 10s 8s 7 9 mph 1016mb 74f 70f
3:50 5.5ft 10s 8s 4 7 mph 1016.4mb 74f 70f
2:50 6ft 9s 8s 4 7 mph 1017.1mb 74f 70f
1:50 6ft 9s 8s 2 4 mph 1017.6mb 74f 69f
10:50 6ft 10s 8s 2 4 mph 1018.6mb 73f 69f
9:50 5ft 9s 7s 2 4 mph 1018.5mb 72f 69f
8:50 6ft 10s 8s 2 4 mph 1018.4mb 72f 69f
7:50 6ft 9s 7s 2 4 mph 1017.9mb 72f 68f
6:50 6ft 9s 8s  -  2 mph 1017.4mb 72f 67f
5:50 5.5ft 10s 7s 2 4 mph 1017.1mb 72f 67f
4:50 5ft 10s 7s 2 4 mph 1016.8mb 72f 67f
3:50 5.5ft 10s 7s 4 7 mph 1016.7mb 72f 67f
2:50 5ft 10s 7s 4 7 mph 1017.4mb 72f 67f
1:50 5ft 10s 7s 7 9 mph 1018mb 72f 68f
12:50 5ft 10s 7s 7 9 mph 1018.3mb 72f 68f
Mo 03/27 11:50 6ft 10s 7s 7 11 mph 1018.7mb 72f 68f
10:50 6ft 10s 7s 7 9 mph 1019.2mb 72f 68f
9:50 5.5ft 10s 7s 9 11 mph 1019.5mb 72f 68f
8:50 5.5ft 10s 7s 9 11 mph 1019mb 73f 69f
7:50 6ft 9s 7s 9 13 mph 1018.7mb 73f 68f
6:50 6ft 10s 7s 9 11 mph 1018.7mb 73f 69f
5:50 5.5ft 9s 7s 7 9 mph 1018.8mb 73f 69f
4:50 6ft 9s 7s 7 9 mph 1019.1mb 73f 69f
3:50 5.5ft 9s 7s 9 11 mph 1019.3mb 73f 69f
2:50 6ft 10s 7s 7 11 mph 1020.2mb 73f 69f
1:50 6ft 10s 7s 11 13 mph 1020.7mb 72f 69f
12:50 5ft 8s 6s 16 18 mph 1020.8mb 72f 69f
11:50 6ft 10s 7s 16 18 mph 1021.4mb 72f 69f
10:50 6ft 10s 7s 16 18 mph 1021.6mb 72f 69f
9:50 5ft 8s 7s 16 18 mph 1021.4mb 72f 69f
8:50 5ft 9s 6s 13 16 mph 1021.2mb 72f 69f
7:50 5.5ft 9s 7s 11 13 mph 1021mb 72f 69f
6:50 5ft 8s 6s 11 13 mph 1020.6mb 72f 69f
5:50 5ft 9s 6s 13 18 mph 1020.2mb 72f 68f
4:50 5.5ft 10s 6s 13 16 mph 1020.3mb 72f 68f
3:50 5ft 8s 6s 13 16 mph 1020.5mb 72f 68f
2:50 5ft 9s 6s 13 18 mph 1020.9mb 72f 68f
1:50 5.5ft 8s 6s 13 18 mph 1021.5mb 72f 67f
12:50 4.5ft 7s 6s 13 18 mph 1022.2mb 72f 68f
So 03/26 11:50 5ft 9s 6s 13 18 mph 1023.1mb 72f 68f
10:50 4.5ft 10s 6s 11 16 mph 1023.6mb 72f 69f
9:50 5ft 9s 6s 13 16 mph 1023.4mb 72f 69f
8:50 5ft 9s 6s 16 20 mph 1023.2mb 72f 67f
7:50 5ft 8s 6s 11 13 mph 1022.9mb 72f 68f
6:50 4.5ft 9s 6s 13 18 mph 1022.8mb 72f 68f